Terminal Aerodrome Forecast
Issued by NWS

Home | Current Version | Previous Version | Graphics & Text | Print | Product List | Glossary On
Versions: 1 2 3 4 5 6 7 8 9 10 11 12 13 14 15 16 17 18
000
FTUS43 KICT 200521
TAFSLN
TAF
KSLN 200521Z 2006/2106 13006KT P6SM FEW250
     FM201400 14010KT P6SM SCT200
     FM201600 14012G23KT P6SM BKN250
     FM210500 10008KT P6SM VCSH OVC070=

USA.gov is the U.S. government's official web portal to all federal, state and local government web resources and services.